Time;durP1;ratioP1;P1;durP2;ratioP2;P2;SDS_P1;SDS_P2;PMS_P1;PMS_P2;Temp;Humidity;BMP_temperature;BMP_pressure;BME280_temperature;BME280_humidity;BME280_pressure;Samples;Min_cycle;Max_cycle;Signal;HPM_P1;HPM_P2
2021/11/25 00:01:22;;;;;;;18.60;10.95;;;;;;;;;;5034014;28;20430;-64
2021/11/25 00:03:48;;;;;;;18.48;11.35;;;;;;;;;;5034514;28;20026;-65
2021/11/25 00:06:15;;;;;;;21.90;12.10;;;;;;;;;;5036771;28;20453;-64
2021/11/25 00:08:41;;;;;;;20.00;11.23;;;;;;;;;;5034904;28;20025;-65
2021/11/25 00:11:07;;;;;;;20.50;11.60;;;;;;;;;;5034776;28;20021;-65
2021/11/25 00:13:33;;;;;;;19.33;10.80;;;;;;;;;;5036013;28;20021;-64
2021/11/25 00:15:59;;;;;;;20.75;11.52;;;;;;;;;;5034768;28;20033;-64
2021/11/25 00:18:25;;;;;;;19.13;11.35;;;;;;;;;;5036015;28;20052;-64
2021/11/25 00:20:53;;;;;;;20.92;11.48;;;;;;;;;;5034600;28;20515;-65
2021/11/25 00:23:19;;;;;;;19.33;11.40;;;;;;;;;;5034396;28;20397;-63
2021/11/25 00:25:45;;;;;;;19.48;12.10;;;;;;;;;;5034720;28;20120;-64
2021/11/25 00:28:11;;;;;;;19.90;12.48;;;;;;;;;;5034627;28;20034;-64
2021/11/25 00:30:37;;;;;;;21.08;12.60;;;;;;;;;;5034335;28;20068;-64
2021/11/25 00:33:03;;;;;;;20.42;12.05;;;;;;;;;;5034210;28;20033;-64
2021/11/25 00:35:29;;;;;;;19.92;11.27;;;;;;;;;;5035530;28;20096;-64
2021/11/25 00:37:55;;;;;;;19.70;11.48;;;;;;;;;;5035864;28;20109;-64
2021/11/25 00:40:21;;;;;;;20.52;12.60;;;;;;;;;;5034060;28;20018;-64
2021/11/25 00:42:47;;;;;;;20.58;12.10;;;;;;;;;;5034146;28;20393;-64
2021/11/25 00:45:14;;;;;;;19.92;12.55;;;;;;;;;;5034520;28;20017;-63
2021/11/25 00:47:41;;;;;;;19.90;11.90;;;;;;;;;;5034301;28;20033;-65
2021/11/25 00:50:08;;;;;;;20.17;12.85;;;;;;;;;;5035572;28;20032;-64
2021/11/25 00:52:34;;;;;;;19.45;12.10;;;;;;;;;;5035162;28;20108;-64
2021/11/25 00:55:00;;;;;;;19.83;11.52;;;;;;;;;;5034379;28;20087;-64
2021/11/25 00:57:26;;;;;;;20.15;11.43;;;;;;;;;;5033924;28;20025;-65
2021/11/25 00:59:52;;;;;;;22.15;11.80;;;;;;;;;;5033718;28;20064;-64
2021/11/25 01:02:19;;;;;;;18.48;10.75;;;;;;;;;;5033621;28;20028;-64
2021/11/25 01:04:45;;;;;;;20.55;11.50;;;;;;;;;;5033734;28;20544;-63
2021/11/25 01:07:11;;;;;;;19.95;11.07;;;;;;;;;;5035222;28;20025;-63
2021/11/25 01:09:38;;;;;;;19.80;11.38;;;;;;;;;;5033775;28;20025;-63
2021/11/25 01:12:04;;;;;;;19.40;10.77;;;;;;;;;;5032317;28;20479;-63
2021/11/25 01:14:30;;;;;;;19.10;11.30;;;;;;;;;;5033879;28;20428;-64
2021/11/25 01:16:56;;;;;;;20.15;10.95;;;;;;;;;;5034990;28;20026;-65
2021/11/25 01:19:25;;;;;;;19.65;11.23;;;;;;;;;;5033511;28;20028;-65
2021/11/25 01:21:51;;;;;;;22.13;11.23;;;;;;;;;;5034509;28;20026;-64
2021/11/25 01:24:17;;;;;;;19.58;11.35;;;;;;;;;;5034855;28;20032;-64
2021/11/25 01:26:43;;;;;;;21.95;12.05;;;;;;;;;;5033779;28;20041;-64
2021/11/25 01:29:11;;;;;;;19.67;12.10;;;;;;;;;;5033784;28;20029;-65
2021/11/25 01:31:37;;;;;;;18.75;11.57;;;;;;;;;;5034285;28;20388;-64
2021/11/25 01:34:03;;;;;;;20.48;12.02;;;;;;;;;;5034626;28;20104;-64
2021/11/25 01:36:29;;;;;;;19.95;12.32;;;;;;;;;;5033627;28;20124;-64
2021/11/25 01:38:55;;;;;;;18.63;11.48;;;;;;;;;;5034691;28;20536;-64
2021/11/25 01:41:21;;;;;;;18.65;11.65;;;;;;;;;;5034695;28;20021;-64
2021/11/25 01:43:47;;;;;;;19.23;12.05;;;;;;;;;;5033103;28;20389;-64
2021/11/25 01:46:15;;;;;;;18.63;11.77;;;;;;;;;;5034268;28;20063;-65
2021/11/25 01:48:42;;;;;;;19.58;12.40;;;;;;;;;;5033226;28;20061;-65
2021/11/25 01:51:09;;;;;;;19.15;11.45;;;;;;;;;;5034504;28;20036;-64
2021/11/25 01:53:35;;;;;;;20.75;13.10;;;;;;;;;;5032868;28;20375;-64
2021/11/25 01:56:01;;;;;;;19.52;11.98;;;;;;;;;;5034087;28;20028;-65
2021/11/25 01:58:27;;;;;;;19.27;12.27;;;;;;;;;;5032920;28;20033;-64
2021/11/25 02:00:55;;;;;;;19.40;12.30;;;;;;;;;;5034164;28;20064;-64
2021/11/25 02:03:21;;;;;;;20.63;12.75;;;;;;;;;;5032779;28;20228;-64
2021/11/25 02:05:47;;;;;;;19.70;12.60;;;;;;;;;;5033974;28;20528;-64
2021/11/25 02:08:13;;;;;;;19.80;12.82;;;;;;;;;;5034056;28;20025;-64
2021/11/25 02:10:43;;;;;;;19.75;12.20;;;;;;;;;;5032886;28;20124;-64
2021/11/25 02:13:09;;;;;;;20.10;12.90;;;;;;;;;;5032654;28;20033;-65
2021/11/25 02:15:35;;;;;;;20.10;12.55;;;;;;;;;;5032782;28;20025;-64
2021/11/25 02:18:06;;;;;;;18.90;12.75;;;;;;;;;;5032555;28;20531;-64
2021/11/25 02:20:36;;;;;;;20.52;13.23;;;;;;;;;;5032459;28;20103;-63
2021/11/25 02:23:02;;;;;;;21.42;13.18;;;;;;;;;;5031954;28;20592;-63
2021/11/25 02:25:28;;;;;;;19.80;13.50;;;;;;;;;;5032524;28;20554;-63
2021/11/25 02:27:54;;;;;;;20.30;13.23;;;;;;;;;;5032493;28;20390;-63
2021/11/25 02:30:20;;;;;;;21.45;14.32;;;;;;;;;;5033383;28;20036;-63
2021/11/25 02:32:46;;;;;;;24.58;13.65;;;;;;;;;;5033332;28;20029;-64
2021/11/25 02:35:20;;;;;;;20.70;13.20;;;;;;;;;;5033612;28;20030;-62
2021/11/25 02:37:46;;;;;;;21.35;13.63;;;;;;;;;;5033385;28;20032;-63
2021/11/25 02:40:14;;;;;;;23.00;13.52;;;;;;;;;;5032232;28;20383;-63
2021/11/25 02:42:40;;;;;;;21.60;14.00;;;;;;;;;;5033537;28;20021;-63
2021/11/25 02:45:06;;;;;;;20.80;13.40;;;;;;;;;;5033788;28;20025;-63
2021/11/25 02:47:32;;;;;;;21.73;15.05;;;;;;;;;;5035064;28;20047;-63
2021/11/25 02:49:58;;;;;;;21.52;13.98;;;;;;;;;;5034655;28;20514;-63
2021/11/25 02:52:25;;;;;;;21.92;13.73;;;;;;;;;;5036082;28;20026;-63
2021/11/25 02:54:51;;;;;;;25.27;13.73;;;;;;;;;;5034511;28;20030;-64
2021/11/25 02:57:17;;;;;;;23.40;14.43;;;;;;;;;;5034772;28;20108;-63
2021/11/25 02:59:43;;;;;;;23.48;14.60;;;;;;;;;;5032954;28;20030;-63
2021/11/25 03:02:09;;;;;;;22.25;14.05;;;;;;;;;;5032590;28;20025;-63
2021/11/25 03:04:35;;;;;;;23.55;14.75;;;;;;;;;;5031985;28;20030;-63
2021/11/25 03:07:02;;;;;;;20.08;12.75;;;;;;;;;;5033027;28;20025;-64
2021/11/25 03:09:28;;;;;;;23.33;14.82;;;;;;;;;;5031720;28;20493;-62
2021/11/25 03:11:54;;;;;;;21.83;15.18;;;;;;;;;;5031602;28;20057;-64
2021/11/25 03:14:20;;;;;;;25.20;14.70;;;;;;;;;;5031671;28;20485;-64
2021/11/25 03:16:46;;;;;;;21.85;14.32;;;;;;;;;;5032849;28;20457;-63
2021/11/25 03:19:13;;;;;;;22.10;14.00;;;;;;;;;;5032646;28;20065;-64
2021/11/25 03:21:39;;;;;;;21.45;14.52;;;;;;;;;;5032641;28;20446;-64
2021/11/25 03:24:05;;;;;;;23.30;15.10;;;;;;;;;;5032638;28;20032;-64
2021/11/25 03:26:31;;;;;;;21.20;15.13;;;;;;;;;;5031414;28;20496;-64
2021/11/25 03:29:00;;;;;;;23.13;15.95;;;;;;;;;;5031277;28;20033;-64
2021/11/25 03:31:28;;;;;;;23.30;14.65;;;;;;;;;;5031385;28;20033;-64
2021/11/25 03:33:55;;;;;;;23.40;14.88;;;;;;;;;;5031114;28;20424;-64
2021/11/25 03:36:21;;;;;;;22.42;14.63;;;;;;;;;;5032350;28;20029;-64
2021/11/25 03:38:47;;;;;;;21.95;14.10;;;;;;;;;;5031002;28;20059;-64
2021/11/25 03:41:13;;;;;;;22.85;15.77;;;;;;;;;;5032417;28;20104;-64
2021/11/25 03:43:40;;;;;;;21.50;14.25;;;;;;;;;;5031788;28;20026;-63
2021/11/25 03:46:06;;;;;;;24.27;16.02;;;;;;;;;;5032430;28;20104;-64
2021/11/25 03:48:32;;;;;;;23.50;16.17;;;;;;;;;;5031239;28;20083;-67
2021/11/25 03:50:59;;;;;;;23.67;14.95;;;;;;;;;;5032302;28;20033;-66
2021/11/25 03:53:25;;;;;;;23.55;15.23;;;;;;;;;;5030824;28;20047;-64
2021/11/25 03:55:51;;;;;;;25.60;15.43;;;;;;;;;;5032294;28;20427;-64
2021/11/25 03:58:17;;;;;;;25.08;16.73;;;;;;;;;;5030896;28;20097;-64
2021/11/25 04:00:44;;;;;;;23.70;15.55;;;;;;;;;;5032185;28;20030;-65
2021/11/25 04:03:10;;;;;;;24.25;16.52;;;;;;;;;;5030704;28;20026;-64
2021/11/25 04:05:36;;;;;;;26.67;16.70;;;;;;;;;;5031108;28;20064;-66
2021/11/25 04:08:02;;;;;;;24.50;15.48;;;;;;;;;;5030785;28;20651;-65
2021/11/25 04:10:28;;;;;;;24.67;15.57;;;;;;;;;;5030897;28;20022;-64
2021/11/25 04:12:54;;;;;;;26.00;17.05;;;;;;;;;;5030839;28;20124;-64
2021/11/25 04:15:20;;;;;;;26.95;16.45;;;;;;;;;;5032324;28;20032;-64
2021/11/25 04:17:47;;;;;;;25.33;16.70;;;;;;;;;;5030673;28;20026;-64
2021/11/25 04:20:13;;;;;;;28.38;17.40;;;;;;;;;;5030881;28;20392;-63
2021/11/25 04:22:40;;;;;;;28.35;18.13;;;;;;;;;;5031750;28;20646;-64
2021/11/25 04:25:06;;;;;;;25.67;17.25;;;;;;;;;;5030915;28;20114;-64
2021/11/25 04:27:32;;;;;;;26.20;17.80;;;;;;;;;;5030749;28;20033;-64
2021/11/25 04:30:08;;;;;;;27.33;17.75;;;;;;;;;;5030400;28;20145;-64
2021/11/25 04:35:37;;;;;;;25.73;16.45;;;;;;;;;;5032150;28;20116;-65
2021/11/25 04:38:05;;;;;;;28.38;18.35;;;;;;;;;;5031745;28;20031;-65
2021/11/25 04:40:34;;;;;;;27.45;17.35;;;;;;;;;;5031802;28;20022;-64
2021/11/25 04:43:00;;;;;;;27.92;18.13;;;;;;;;;;5030279;28;20432;-65
2021/11/25 04:45:26;;;;;;;29.23;17.10;;;;;;;;;;5030788;28;20022;-64
2021/11/25 04:47:52;;;;;;;27.30;15.90;;;;;;;;;;5034136;28;20084;-64
2021/11/25 04:50:20;;;;;;;27.77;17.92;;;;;;;;;;5035127;28;20546;-64
2021/11/25 04:52:46;;;;;;;30.60;18.83;;;;;;;;;;5034041;28;20025;-64
2021/11/25 04:55:12;;;;;;;30.30;18.80;;;;;;;;;;5033917;28;20040;-64
2021/11/25 04:57:38;;;;;;;29.00;17.98;;;;;;;;;;5035276;28;20378;-64
2021/11/25 05:00:06;;;;;;;25.83;17.48;;;;;;;;;;5033866;28;20044;-64
2021/11/25 05:02:32;;;;;;;28.63;18.92;;;;;;;;;;5035225;28;20025;-65
2021/11/25 05:04:58;;;;;;;28.52;18.80;;;;;;;;;;5035343;28;20049;-65
2021/11/25 05:07:24;;;;;;;29.73;19.00;;;;;;;;;;5034089;28;20080;-65
2021/11/25 05:09:50;;;;;;;31.85;19.63;;;;;;;;;;5033822;28;20029;-65
2021/11/25 05:12:16;;;;;;;31.48;19.40;;;;;;;;;;5033549;28;20116;-65
2021/11/25 05:14:42;;;;;;;28.75;17.85;;;;;;;;;;5033788;28;20029;-64
2021/11/25 05:17:08;;;;;;;29.77;18.23;;;;;;;;;;5034967;28;20560;-64
2021/11/25 05:19:34;;;;;;;28.95;18.80;;;;;;;;;;5033458;28;20477;-64
2021/11/25 05:22:00;;;;;;;33.40;19.83;;;;;;;;;;5034499;28;20022;-64
2021/11/25 05:24:26;;;;;;;29.75;19.00;;;;;;;;;;5034753;28;20024;-64
2021/11/25 05:26:53;;;;;;;32.97;20.50;;;;;;;;;;5033153;28;20084;-64
2021/11/25 05:29:19;;;;;;;34.10;21.48;;;;;;;;;;5034473;28;20022;-64
2021/11/25 05:31:45;;;;;;;29.17;19.23;;;;;;;;;;5032958;28;20029;-66
2021/11/25 05:34:11;;;;;;;32.25;20.45;;;;;;;;;;5034619;28;20033;-64
2021/11/25 05:36:37;;;;;;;36.15;22.42;;;;;;;;;;5033330;28;20018;-64
2021/11/25 05:39:03;;;;;;;32.35;21.30;;;;;;;;;;5032825;28;20064;-65
2021/11/25 05:41:29;;;;;;;33.58;21.33;;;;;;;;;;5034257;28;20021;-64
2021/11/25 05:43:55;;;;;;;32.40;19.83;;;;;;;;;;5032811;28;20104;-65
2021/11/25 05:46:23;;;;;;;33.92;21.38;;;;;;;;;;5032831;28;20596;-64
2021/11/25 05:48:49;;;;;;;36.03;19.87;;;;;;;;;;5032956;28;20108;-64
2021/11/25 05:51:15;;;;;;;32.03;20.08;;;;;;;;;;5032708;28;20523;-65
2021/11/25 05:53:41;;;;;;;33.10;20.02;;;;;;;;;;5033737;28;20108;-64
2021/11/25 05:56:07;;;;;;;33.13;19.50;;;;;;;;;;5032811;28;20044;-64
2021/11/25 05:58:33;;;;;;;32.28;19.80;;;;;;;;;;5033522;28;20481;-64
2021/11/25 06:00:59;;;;;;;32.63;20.92;;;;;;;;;;5047445;23;20049;-64
2021/11/25 06:03:25;;;;;;;31.20;20.65;;;;;;;;;;5031672;28;20096;-64
2021/11/25 06:05:51;;;;;;;33.50;20.75;;;;;;;;;;5032517;28;20100;-63
2021/11/25 06:08:17;;;;;;;31.80;20.45;;;;;;;;;;5032499;28;20532;-64
2021/11/25 06:10:43;;;;;;;37.28;21.10;;;;;;;;;;5030856;28;20061;-64
2021/11/25 06:13:09;;;;;;;32.10;21.15;;;;;;;;;;5030465;28;20021;-66
2021/11/25 06:15:35;;;;;;;42.88;23.10;;;;;;;;;;5032212;28;20096;-63
2021/11/25 06:18:01;;;;;;;30.52;21.45;;;;;;;;;;5030788;28;20036;-64
2021/11/25 06:20:27;;;;;;;33.65;22.00;;;;;;;;;;5032108;28;20316;-66
2021/11/25 06:22:54;;;;;;;32.10;20.90;;;;;;;;;;5030504;28;20033;-64
2021/11/25 06:25:21;;;;;;;31.48;21.02;;;;;;;;;;5030752;28;20489;-64
2021/11/25 06:27:47;;;;;;;39.30;23.63;;;;;;;;;;5030880;28;20401;-64
2021/11/25 06:30:14;;;;;;;34.45;21.40;;;;;;;;;;5031744;28;20026;-63
2021/11/25 06:32:41;;;;;;;32.70;20.38;;;;;;;;;;5031507;28;20083;-65
2021/11/25 06:35:11;;;;;;;32.22;20.80;;;;;;;;;;5031567;28;20029;-64
2021/11/25 06:37:44;;;;;;;37.60;21.92;;;;;;;;;;5030150;28;20109;-64
2021/11/25 06:40:10;;;;;;;34.10;20.13;;;;;;;;;;5029154;28;20021;-62
2021/11/25 06:42:36;;;;;;;34.38;20.27;;;;;;;;;;5029430;28;20025;-66
2021/11/25 06:45:03;;;;;;;31.92;20.10;;;;;;;;;;5031192;28;20028;-66
2021/11/25 06:47:29;;;;;;;33.80;20.92;;;;;;;;;;5031449;28;20606;-65
2021/11/25 06:49:55;;;;;;;38.78;21.38;;;;;;;;;;5029656;28;20033;-63
2021/11/25 06:52:21;;;;;;;37.42;22.30;;;;;;;;;;5030827;28;20053;-64
2021/11/25 06:54:47;;;;;;;37.35;23.33;;;;;;;;;;5031334;28;20018;-64
2021/11/25 06:57:13;;;;;;;39.50;22.58;;;;;;;;;;5029367;28;20021;-63
2021/11/25 06:59:40;;;;;;;34.90;23.35;;;;;;;;;;5030779;28;20033;-64
2021/11/25 07:02:06;;;;;;;38.38;22.55;;;;;;;;;;5029362;28;20021;-66
2021/11/25 07:04:32;;;;;;;35.80;21.80;;;;;;;;;;5029217;28;20036;-64
2021/11/25 07:06:59;;;;;;;42.90;24.67;;;;;;;;;;5031279;28;20487;-65
2021/11/25 07:09:25;;;;;;;40.03;24.63;;;;;;;;;;5030671;28;20163;-64
2021/11/25 07:11:51;;;;;;;36.78;21.98;;;;;;;;;;5029195;28;20021;-63
2021/11/25 07:14:17;;;;;;;37.53;24.33;;;;;;;;;;5030530;28;20480;-65
2021/11/25 07:16:43;;;;;;;39.03;24.10;;;;;;;;;;5030535;28;20041;-64
2021/11/25 07:19:09;;;;;;;38.60;23.52;;;;;;;;;;5030664;28;20025;-63
2021/11/25 07:21:35;;;;;;;41.05;24.60;;;;;;;;;;5029287;28;20044;-64
2021/11/25 07:24:01;;;;;;;38.85;24.38;;;;;;;;;;5029085;28;20458;-65
2021/11/25 07:26:27;;;;;;;40.20;23.55;;;;;;;;;;5030747;28;20424;-65
2021/11/25 07:28:56;;;;;;;39.58;24.00;;;;;;;;;;5030905;28;20029;-66
2021/11/25 07:31:27;;;;;;;38.15;24.13;;;;;;;;;;5029222;28;20038;-65
2021/11/25 07:33:53;;;;;;;41.67;23.02;;;;;;;;;;5030563;28;20136;-65
2021/11/25 07:36:19;;;;;;;40.45;23.92;;;;;;;;;;5030563;28;20044;-64
2021/11/25 07:38:45;;;;;;;38.75;23.88;;;;;;;;;;5030298;28;20477;-66
2021/11/25 07:41:11;;;;;;;40.67;23.88;;;;;;;;;;5030405;28;20049;-65
2021/11/25 07:43:37;;;;;;;37.92;22.63;;;;;;;;;;5030555;28;20375;-65
2021/11/25 07:46:03;;;;;;;40.17;22.45;;;;;;;;;;5030309;28;20029;-65
2021/11/25 07:48:29;;;;;;;39.00;22.63;;;;;;;;;;5030601;28;20117;-65
2021/11/25 07:50:55;;;;;;;44.38;22.00;;;;;;;;;;5030460;28;20497;-65
2021/11/25 07:53:22;;;;;;;39.15;23.20;;;;;;;;;;5030156;28;20029;-65
2021/11/25 07:55:48;;;;;;;38.70;23.95;;;;;;;;;;5029301;28;20022;-64
2021/11/25 07:58:14;;;;;;;31.13;17.73;;;;;;;;;;5030315;28;20036;-64
2021/11/25 08:00:40;;;;;;;35.17;19.83;;;;;;;;;;5030364;28;20091;-64
2021/11/25 08:03:06;;;;;;;38.45;21.67;;;;;;;;;;5028654;28;20092;-65
2021/11/25 08:05:32;;;;;;;37.80;23.00;;;;;;;;;;5030258;28;20080;-65
2021/11/25 08:07:59;;;;;;;35.70;22.85;;;;;;;;;;5028933;28;20060;-65
2021/11/25 08:10:26;;;;;;;36.97;22.85;;;;;;;;;;5029986;28;20026;-64
2021/11/25 08:12:54;;;;;;;38.10;23.55;;;;;;;;;;5028659;28;20457;-65
2021/11/25 08:15:20;;;;;;;40.35;25.00;;;;;;;;;;5028726;28;20025;-65
2021/11/25 08:17:46;;;;;;;39.63;23.98;;;;;;;;;;5030037;28;20033;-64
2021/11/25 08:20:12;;;;;;;39.53;23.40;;;;;;;;;;5030141;28;20037;-64
2021/11/25 08:22:39;;;;;;;33.53;18.83;;;;;;;;;;5032098;28;20463;-65
2021/11/25 08:25:06;;;;;;;39.20;23.80;;;;;;;;;;5034314;28;20026;-65
2021/11/25 08:27:33;;;;;;;38.45;25.05;;;;;;;;;;5034317;28;20025;-64
2021/11/25 08:29:59;;;;;;;37.42;23.42;;;;;;;;;;5034288;28;20053;-65
2021/11/25 08:32:24;;;;;;;35.58;18.65;;;;;;;;;;5033840;28;20026;-65
2021/11/25 08:34:51;;;;;;;33.80;21.17;;;;;;;;;;5033027;28;20024;-68
2021/11/25 08:37:17;;;;;;;42.03;21.50;;;;;;;;;;5034165;28;20026;-67
2021/11/25 08:39:43;;;;;;;38.33;21.25;;;;;;;;;;5033876;28;20041;-68
2021/11/25 08:42:09;;;;;;;33.42;19.83;;;;;;;;;;5033535;28;20510;-67
2021/11/25 08:44:35;;;;;;;34.30;21.60;;;;;;;;;;5033838;28;20029;-67
2021/11/25 08:47:01;;;;;;;37.53;21.08;;;;;;;;;;5034029;28;20039;-67
2021/11/25 08:49:29;;;;;;;35.38;22.35;;;;;;;;;;5033965;28;20052;-67
2021/11/25 08:51:55;;;;;;;37.77;21.97;;;;;;;;;;5033461;28;20043;-67
2021/11/25 08:54:22;;;;;;;33.92;21.90;;;;;;;;;;5032452;28;20446;-67
2021/11/25 08:56:49;;;;;;;38.22;22.40;;;;;;;;;;5032538;28;20045;-67
2021/11/25 08:59:15;;;;;;;36.75;22.85;;;;;;;;;;5033325;28;20017;-68
2021/11/25 09:01:41;;;;;;;34.17;21.45;;;;;;;;;;5032027;28;20486;-67
2021/11/25 09:04:07;;;;;;;34.95;21.30;;;;;;;;;;5033570;28;20091;-67
2021/11/25 09:06:34;;;;;;;34.35;23.27;;;;;;;;;;5033358;28;20438;-65
2021/11/25 09:09:00;;;;;;;34.35;21.65;;;;;;;;;;5033499;28;20017;-65
2021/11/25 09:11:26;;;;;;;36.33;22.90;;;;;;;;;;5033422;28;20021;-66
2021/11/25 09:13:52;;;;;;;35.13;21.80;;;;;;;;;;5031871;28;20029;-67
2021/11/25 09:16:18;;;;;;;40.15;22.92;;;;;;;;;;5033209;28;20418;-67
2021/11/25 09:18:45;;;;;;;34.17;21.65;;;;;;;;;;5033200;28;20022;-66
2021/11/25 09:21:11;;;;;;;32.97;21.67;;;;;;;;;;5033083;28;20043;-67
2021/11/25 09:23:37;;;;;;;37.38;22.85;;;;;;;;;;5031937;28;20028;-67
2021/11/25 09:26:04;;;;;;;36.90;22.50;;;;;;;;;;5032090;28;20030;-66
2021/11/25 09:28:30;;;;;;;36.05;22.05;;;;;;;;;;5031881;28;20049;-67
2021/11/25 09:30:56;;;;;;;34.75;20.83;;;;;;;;;;5032870;28;20369;-65
2021/11/25 09:33:23;;;;;;;35.67;23.27;;;;;;;;;;5031271;28;20433;-67
2021/11/25 09:35:49;;;;;;;34.78;21.67;;;;;;;;;;5033197;28;20021;-67
2021/11/25 09:38:15;;;;;;;34.78;20.90;;;;;;;;;;5031494;28;20052;-65
2021/11/25 09:40:43;;;;;;;37.33;22.10;;;;;;;;;;5031468;28;20393;-68
2021/11/25 09:43:11;;;;;;;34.03;22.80;;;;;;;;;;5032459;28;20021;-68
2021/11/25 09:45:37;;;;;;;36.17;22.40;;;;;;;;;;5032723;28;20025;-68
2021/11/25 09:48:05;;;;;;;33.20;21.63;;;;;;;;;;5031198;28;20696;-67
2021/11/25 09:50:32;;;;;;;37.00;23.05;;;;;;;;;;5031218;28;20029;-66
2021/11/25 09:53:01;;;;;;;32.97;22.27;;;;;;;;;;5032184;28;20061;-64
2021/11/25 09:55:27;;;;;;;40.05;24.00;;;;;;;;;;5032363;28;20049;-66
2021/11/25 09:57:53;;;;;;;33.65;21.73;;;;;;;;;;5032447;28;20025;-66
2021/11/25 10:00:21;;;;;;;36.28;22.50;;;;;;;;;;5030663;28;20385;-67
2021/11/25 10:02:47;;;;;;;35.80;21.77;;;;;;;;;;5032057;28;20053;-66
2021/11/25 10:05:13;;;;;;;31.05;21.77;;;;;;;;;;5032105;28;20506;-67
2021/11/25 10:07:41;;;;;;;38.17;22.98;;;;;;;;;;5031640;28;20469;-67
2021/11/25 10:10:26;;;;;;;33.58;19.92;;;;;;;;;;5030665;28;20044;-67
2021/11/25 10:12:58;;;;;;;35.85;23.30;;;;;;;;;;5029298;28;20025;-65
2021/11/25 10:15:26;;;;;;;35.22;23.13;;;;;;;;;;5030907;28;20032;-67
2021/11/25 10:17:54;;;;;;;34.72;22.13;;;;;;;;;;5032289;28;20079;-66
2021/11/25 10:20:20;;;;;;;34.60;22.38;;;;;;;;;;5031754;28;20064;-68
2021/11/25 10:23:02;;;;;;;30.60;21.45;;;;;;;;;;5031688;28;20100;-66
2021/11/25 10:25:44;;;;;;;33.47;22.95;;;;;;;;;;5030744;28;20029;-68
2021/11/25 10:28:29;;;;;;;36.45;22.95;;;;;;;;;;5032238;28;20022;-68
2021/11/25 10:30:57;;;;;;;33.72;22.83;;;;;;;;;;5031906;28;20030;-68
2021/11/25 10:33:30;;;;;;;34.25;23.00;;;;;;;;;;5030322;28;20025;-68
2021/11/25 10:41:21;;;;;;;30.63;21.40;;;;;;;;;;5031917;28;20030;-68
2021/11/25 10:44:01;;;;;;;38.65;22.98;;;;;;;;;;5031012;28;20017;-66
2021/11/25 10:46:37;;;;;;;35.22;22.35;;;;;;;;;;5031973;28;20401;-65
2021/11/25 10:49:03;;;;;;;32.55;22.02;;;;;;;;;;5031415;28;20030;-65
2021/11/25 10:51:30;;;;;;;32.95;22.05;;;;;;;;;;5031521;28;20049;-65
2021/11/25 10:54:10;;;;;;;34.28;22.42;;;;;;;;;;5031432;28;20129;-66
2021/11/25 10:56:36;;;;;;;33.17;21.42;;;;;;;;;;5031585;28;20036;-65
2021/11/25 10:59:02;;;;;;;31.88;22.55;;;;;;;;;;5030298;28;20037;-66
2021/11/25 11:01:35;;;;;;;35.28;23.48;;;;;;;;;;5031198;28;20033;-65
2021/11/25 11:04:01;;;;;;;37.97;22.73;;;;;;;;;;5031369;28;20389;-66
2021/11/25 11:06:31;;;;;;;36.72;22.67;;;;;;;;;;5031220;28;20021;-65
2021/11/25 11:08:58;;;;;;;36.15;21.60;;;;;;;;;;5031449;28;20021;-69
2021/11/25 11:11:24;;;;;;;38.15;23.67;;;;;;;;;;5031287;28;20045;-65
2021/11/25 11:14:42;;;;;;;32.08;22.17;;;;;;;;;;5030889;28;20033;-65
2021/11/25 11:17:25;;;;;;;34.60;22.90;;;;;;;;;;5030938;28;20107;-65
2021/11/25 11:20:09;;;;;;;33.13;22.52;;;;;;;;;;5030091;28;20033;-68
2021/11/25 11:22:36;;;;;;;34.05;22.80;;;;;;;;;;5030795;28;20040;-67
2021/11/25 11:25:06;;;;;;;35.13;21.35;;;;;;;;;;5030880;28;20044;-66
2021/11/25 11:27:32;;;;;;;32.13;21.17;;;;;;;;;;5031187;28;20017;-66
2021/11/25 11:29:58;;;;;;;33.85;21.88;;;;;;;;;;5030886;28;20437;-68
2021/11/25 11:32:24;;;;;;;35.15;22.35;;;;;;;;;;5028874;28;20080;-69
2021/11/25 11:34:52;;;;;;;32.17;20.90;;;;;;;;;;5030926;28;20021;-66
2021/11/25 11:37:18;;;;;;;35.17;21.07;;;;;;;;;;5031044;28;20025;-68
2021/11/25 11:39:46;;;;;;;34.90;21.17;;;;;;;;;;5029434;28;20079;-65
2021/11/25 11:42:12;;;;;;;33.85;20.27;;;;;;;;;;5029166;28;20025;-66
2021/11/25 11:44:41;;;;;;;29.70;18.27;;;;;;;;;;5030867;28;20018;-65
2021/11/25 11:47:08;;;;;;;34.10;21.05;;;;;;;;;;5030308;28;20466;-66
2021/11/25 11:49:36;;;;;;;34.10;19.55;;;;;;;;;;5030501;28;20037;-65
2021/11/25 11:52:06;;;;;;;38.65;22.40;;;;;;;;;;5030304;28;20026;-66
2021/11/25 11:54:43;;;;;;;36.30;20.92;;;;;;;;;;5030364;28;20060;-65
2021/11/25 11:57:30;;;;;;;31.60;21.73;;;;;;;;;;5029806;28;20025;-66
2021/11/25 11:59:57;;;;;;;29.85;19.33;;;;;;;;;;5030124;28;20056;-66
2021/11/25 12:02:39;;;;;;;28.20;17.13;;;;;;;;;;5058827;22;20041;-61
2021/11/25 12:05:05;;;;;;;32.58;21.05;;;;;;;;;;5032565;28;20264;-60
2021/11/25 12:07:31;;;;;;;37.47;23.52;;;;;;;;;;5030981;28;20014;-62
2021/11/25 12:09:57;;;;;;;32.75;21.10;;;;;;;;;;5032448;28;20026;-63
2021/11/25 12:12:23;;;;;;;33.63;20.58;;;;;;;;;;5032307;28;20129;-63
2021/11/25 12:14:53;;;;;;;33.40;22.02;;;;;;;;;;5031324;28;20053;-63
2021/11/25 12:17:37;;;;;;;34.95;22.58;;;;;;;;;;5032477;28;20026;-63
2021/11/25 12:20:25;;;;;;;35.63;20.63;;;;;;;;;;5031725;28;20037;-63
2021/11/25 12:22:53;;;;;;;35.53;20.27;;;;;;;;;;5030016;28;20028;-63
2021/11/25 12:25:29;;;;;;;37.15;23.25;;;;;;;;;;5031653;28;20423;-64
2021/11/25 12:28:15;;;;;;;35.60;22.75;;;;;;;;;;5031187;28;20029;-64
2021/11/25 12:30:42;;;;;;;43.78;23.08;;;;;;;;;;5031327;28;20030;-63
2021/11/25 12:33:08;;;;;;;40.08;23.77;;;;;;;;;;5031140;28;20025;-64
2021/11/25 12:35:38;;;;;;;33.42;21.27;;;;;;;;;;5030511;28;20037;-63
2021/11/25 12:38:07;;;;;;;38.97;23.45;;;;;;;;;;5031812;28;20028;-64
2021/11/25 12:40:33;;;;;;;;;;;;;;;;;;5031984;28;20033;-63
2021/11/25 12:43:00;;;;;;;43.22;25.17;;;;;;;;;;5029871;28;19906;-63
2021/11/25 12:45:31;;;;;;;40.00;25.13;;;;;;;;;;5029952;28;20028;-63
2021/11/25 12:48:10;;;;;;;43.95;25.65;;;;;;;;;;5029982;28;20037;-63
2021/11/25 12:50:38;;;;;;;45.38;27.95;;;;;;;;;;5030003;28;20028;-63
2021/11/25 12:53:10;;;;;;;44.58;28.08;;;;;;;;;;5030719;28;20029;-64
2021/11/25 12:55:36;;;;;;;47.13;29.10;;;;;;;;;;5029710;28;20034;-63
2021/11/25 12:58:02;;;;;;;47.92;27.77;;;;;;;;;;5030819;28;20040;-63
2021/11/25 13:00:30;;;;;;;50.75;29.58;;;;;;;;;;5030879;28;20436;-64
2021/11/25 13:03:00;;;;;;;49.97;32.15;;;;;;;;;;5029588;28;20033;-63
2021/11/25 13:05:26;;;;;;;55.22;32.35;;;;;;;;;;5031412;28;20024;-64
2021/11/25 13:07:53;;;;;;;67.20;33.00;;;;;;;;;;5033351;28;20068;-62
2021/11/25 13:10:23;;;;;;;55.08;33.47;;;;;;;;;;5034653;28;20456;-64
2021/11/25 13:12:49;;;;;;;58.72;34.60;;;;;;;;;;5034541;28;20161;-64
2021/11/25 13:15:15;;;;;;;56.38;36.65;;;;;;;;;;5033619;28;20072;-64
2021/11/25 13:17:54;;;;;;;62.70;37.10;;;;;;;;;;5034337;28;20029;-63
2021/11/25 13:20:40;;;;;;;56.03;29.83;;;;;;;;;;5035009;28;20371;-64
2021/11/25 13:23:06;;;;;;;66.57;37.92;;;;;;;;;;5034449;28;20079;-61
2021/11/25 13:25:32;;;;;;;62.03;35.33;;;;;;;;;;5034554;28;20022;-64
2021/11/25 13:27:58;;;;;;;59.03;36.05;;;;;;;;;;5033142;28;20474;-63
2021/11/25 13:30:24;;;;;;;61.10;36.25;;;;;;;;;;5033454;28;20167;-60
2021/11/25 13:32:51;;;;;;;59.03;38.80;;;;;;;;;;5033009;28;20457;-62
2021/11/25 13:35:19;;;;;;;51.20;31.42;;;;;;;;;;5033320;28;20440;-64
2021/11/25 13:37:53;;;;;;;57.05;37.80;;;;;;;;;;5033006;28;20026;-65
2021/11/25 13:40:21;;;;;;;62.20;36.63;;;;;;;;;;5034246;28;20017;-64
2021/11/25 13:42:48;;;;;;;58.77;36.63;;;;;;;;;;5033924;28;20048;-65
2021/11/25 13:45:20;;;;;;;59.75;37.65;;;;;;;;;;5034349;28;20072;-65
2021/11/25 13:47:47;;;;;;;60.03;34.40;;;;;;;;;;5031683;28;20029;-63
2021/11/25 13:50:18;;;;;;;65.55;38.50;;;;;;;;;;5033941;28;20057;-65
2021/11/25 13:52:45;;;;;;;63.33;37.20;;;;;;;;;;5034055;28;20025;-65
2021/11/25 13:55:12;;;;;;;61.63;34.00;;;;;;;;;;5034443;28;20064;-65
2021/11/25 13:57:39;;;;;;;65.50;38.75;;;;;;;;;;5032780;28;20057;-65
2021/11/25 14:00:09;;;;;;;60.55;36.63;;;;;;;;;;5034438;28;20017;-63
2021/11/25 14:02:35;;;;;;;50.60;28.67;;;;;;;;;;5033942;28;20041;-65
2021/11/25 14:05:02;;;;;;;52.03;32.20;;;;;;;;;;5034072;28;20100;-63
2021/11/25 14:07:30;;;;;;;60.75;38.33;;;;;;;;;;5032843;28;20022;-63
2021/11/25 14:10:14;;;;;;;64.20;35.85;;;;;;;;;;5032840;28;20497;-63
2021/11/25 14:12:42;;;;;;;62.65;36.47;;;;;;;;;;5034057;28;20026;-64
2021/11/25 14:15:13;;;;;;;54.97;34.30;;;6.00;99.90;;;;;;5018013;28;20045;-63
2021/11/25 14:17:44;;;;;;;57.38;35.40;;;4.80;99.90;;;;;;5033266;28;20021;-63
2021/11/25 14:20:25;;;;;;;55.92;35.35;;;4.90;99.90;;;;;;5032980;28;20362;-63
2021/11/25 14:22:52;;;;;;;56.42;31.35;;;4.80;99.90;;;;;;5031444;28;20504;-63
2021/11/25 14:25:35;;;;;;;59.35;34.38;;;4.70;99.90;;;;;;5033732;28;20030;-61
2021/11/25 14:31:17;;;;;;;54.38;30.27;;;4.70;99.90;;;;;;5033115;28;20033;-63